sensor_id;sensor_type;location;lat;lon;timestamp;pressure;altitude;pressure_sealevel;temperature;humidity
32083;BME280;18597;48.328;7.932;2023-07-09T00:01:17;99778.22;;;19.56;100.00
32083;BME280;18597;48.328;7.932;2023-07-09T00:03:46;99779.06;;;19.65;100.00
32083;BME280;18597;48.328;7.932;2023-07-09T00:06:17;99781.81;;;19.72;100.00
32083;BME280;18597;48.328;7.932;2023-07-09T00:08:45;99773.97;;;19.77;100.00
32083;BME280;18597;48.328;7.932;2023-07-09T00:11:15;99776.16;;;19.66;100.00
32083;BME280;18597;48.328;7.932;2023-07-09T00:13:41;99779.22;;;19.63;100.00
32083;BME280;18597;48.328;7.932;2023-07-09T00:16:20;99786.41;;;19.71;100.00
32083;BME280;18597;48.328;7.932;2023-07-09T00:18:47;99786.50;;;19.63;100.00
32083;BME280;18597;48.328;7.932;2023-07-09T00:21:16;99787.19;;;19.65;100.00
32083;BME280;18597;48.328;7.932;2023-07-09T00:23:41;99786.69;;;19.61;100.00
32083;BME280;18597;48.328;7.932;2023-07-09T00:26:10;99787.13;;;19.50;100.00
32083;BME280;18597;48.328;7.932;2023-07-09T00:28:40;99777.69;;;19.46;100.00
32083;BME280;18597;48.328;7.932;2023-07-09T00:31:13;99777.75;;;19.38;100.00
32083;BME280;18597;48.328;7.932;2023-07-09T00:33:42;99786.69;;;19.24;100.00
32083;BME280;18597;48.328;7.932;2023-07-09T00:36:18;99782.97;;;19.25;100.00
32083;BME280;18597;48.328;7.932;2023-07-09T00:38:45;99792.31;;;19.22;100.00
32083;BME280;18597;48.328;7.932;2023-07-09T00:41:18;99794.63;;;19.25;100.00
32083;BME280;18597;48.328;7.932;2023-07-09T00:43:46;99790.53;;;19.29;100.00
32083;BME280;18597;48.328;7.932;2023-07-09T00:49:04;99791.91;;;19.25;100.00
32083;BME280;18597;48.328;7.932;2023-07-09T00:51:33;99797.91;;;19.21;100.00
32083;BME280;18597;48.328;7.932;2023-07-09T00:54:11;99791.72;;;19.12;100.00
32083;BME280;18597;48.328;7.932;2023-07-09T00:56:44;99787.09;;;18.98;100.00
32083;BME280;18597;48.328;7.932;2023-07-09T00:59:14;99785.50;;;19.03;100.00
32083;BME280;18597;48.328;7.932;2023-07-09T01:01:41;99788.97;;;18.97;100.00
32083;BME280;18597;48.328;7.932;2023-07-09T01:04:09;99790.72;;;18.90;100.00
32083;BME280;18597;48.328;7.932;2023-07-09T01:06:41;99783.06;;;18.94;100.00
32083;BME280;18597;48.328;7.932;2023-07-09T01:09:08;99790.28;;;19.01;100.00
32083;BME280;18597;48.328;7.932;2023-07-09T01:11:35;99789.50;;;18.93;100.00
32083;BME280;18597;48.328;7.932;2023-07-09T01:14:05;99791.59;;;19.05;100.00
32083;BME280;18597;48.328;7.932;2023-07-09T01:16:38;99781.19;;;18.94;100.00
32083;BME280;18597;48.328;7.932;2023-07-09T01:19:06;99784.25;;;19.14;100.00
32083;BME280;18597;48.328;7.932;2023-07-09T01:21:32;99786.72;;;19.01;100.00
32083;BME280;18597;48.328;7.932;2023-07-09T01:23:58;99782.41;;;18.92;100.00
32083;BME280;18597;48.328;7.932;2023-07-09T01:26:27;99782.66;;;18.82;100.00
32083;BME280;18597;48.328;7.932;2023-07-09T01:28:55;99780.72;;;18.68;100.00
32083;BME280;18597;48.328;7.932;2023-07-09T01:31:21;99780.47;;;18.77;100.00
32083;BME280;18597;48.328;7.932;2023-07-09T01:33:47;99782.28;;;18.85;100.00
32083;BME280;18597;48.328;7.932;2023-07-09T01:36:19;99780.34;;;18.94;100.00
32083;BME280;18597;48.328;7.932;2023-07-09T01:38:49;99782.41;;;18.92;100.00
32083;BME280;18597;48.328;7.932;2023-07-09T01:41:16;99779.94;;;18.82;100.00
32083;BME280;18597;48.328;7.932;2023-07-09T01:43:43;99786.34;;;18.81;100.00
32083;BME280;18597;48.328;7.932;2023-07-09T01:46:11;99787.09;;;18.75;100.00
32083;BME280;18597;48.328;7.932;2023-07-09T01:48:39;99789.88;;;18.67;100.00
32083;BME280;18597;48.328;7.932;2023-07-09T01:51:10;99783.75;;;18.65;100.00
32083;BME280;18597;48.328;7.932;2023-07-09T01:53:38;99784.94;;;18.62;100.00
32083;BME280;18597;48.328;7.932;2023-07-09T01:56:05;99786.13;;;18.68;100.00
32083;BME280;18597;48.328;7.932;2023-07-09T01:58:33;99787.81;;;18.69;100.00
32083;BME280;18597;48.328;7.932;2023-07-09T02:01:00;99782.78;;;18.57;100.00
32083;BME280;18597;48.328;7.932;2023-07-09T02:03:26;99788.91;;;18.51;100.00
32083;BME280;18597;48.328;7.932;2023-07-09T02:05:53;99781.91;;;18.34;100.00
32083;BME280;18597;48.328;7.932;2023-07-09T02:08:20;99789.00;;;18.35;100.00
32083;BME280;18597;48.328;7.932;2023-07-09T02:10:48;99791.69;;;18.35;100.00
32083;BME280;18597;48.328;7.932;2023-07-09T02:13:15;99795.56;;;18.41;100.00
32083;BME280;18597;48.328;7.932;2023-07-09T02:15:43;99792.34;;;18.45;100.00
32083;BME280;18597;48.328;7.932;2023-07-09T02:18:12;99793.03;;;18.39;100.00
32083;BME280;18597;48.328;7.932;2023-07-09T02:20:38;99796.25;;;18.35;100.00
32083;BME280;18597;48.328;7.932;2023-07-09T02:23:06;99797.78;;;18.37;100.00
32083;BME280;18597;48.328;7.932;2023-07-09T02:25:31;99802.00;;;18.40;100.00
32083;BME280;18597;48.328;7.932;2023-07-09T02:27:57;99797.94;;;18.36;100.00
32083;BME280;18597;48.328;7.932;2023-07-09T02:30:23;99799.66;;;18.28;100.00
32083;BME280;18597;48.328;7.932;2023-07-09T02:32:49;99797.34;;;18.25;100.00
32083;BME280;18597;48.328;7.932;2023-07-09T02:35:15;99802.25;;;18.22;100.00
32083;BME280;18597;48.328;7.932;2023-07-09T02:37:41;99803.44;;;18.19;100.00
32083;BME280;18597;48.328;7.932;2023-07-09T02:40:08;99799.56;;;18.22;100.00
32083;BME280;18597;48.328;7.932;2023-07-09T02:42:35;99805.66;;;18.16;100.00
32083;BME280;18597;48.328;7.932;2023-07-09T02:45:03;99802.59;;;18.19;100.00
32083;BME280;18597;48.328;7.932;2023-07-09T02:47:29;99801.72;;;18.26;100.00
32083;BME280;18597;48.328;7.932;2023-07-09T02:49:55;99803.16;;;18.14;100.00
32083;BME280;18597;48.328;7.932;2023-07-09T02:52:21;99816.22;;;17.94;100.00
32083;BME280;18597;48.328;7.932;2023-07-09T02:54:46;99816.56;;;17.83;100.00
32083;BME280;18597;48.328;7.932;2023-07-09T02:57:12;99823.19;;;17.72;100.00
32083;BME280;18597;48.328;7.932;2023-07-09T02:59:38;99821.50;;;17.63;100.00
32083;BME280;18597;48.328;7.932;2023-07-09T03:02:04;99826.09;;;17.55;100.00
32083;BME280;18597;48.328;7.932;2023-07-09T03:04:30;99824.66;;;17.99;100.00
32083;BME280;18597;48.328;7.932;2023-07-09T03:06:57;99823.50;;;17.86;100.00
32083;BME280;18597;48.328;7.932;2023-07-09T03:09:24;99828.25;;;17.75;100.00
32083;BME280;18597;48.328;7.932;2023-07-09T03:11:49;99829.97;;;17.77;100.00
32083;BME280;18597;48.328;7.932;2023-07-09T03:14:16;99823.53;;;17.78;100.00
32083;BME280;18597;48.328;7.932;2023-07-09T03:16:42;99831.50;;;17.71;100.00
32083;BME280;18597;48.328;7.932;2023-07-09T03:19:08;99825.72;;;17.58;100.00
32083;BME280;18597;48.328;7.932;2023-07-09T03:21:33;99827.78;;;17.47;100.00
32083;BME280;18597;48.328;7.932;2023-07-09T03:23:59;99824.25;;;17.39;100.00
32083;BME280;18597;48.328;7.932;2023-07-09T03:26:26;99831.84;;;17.35;100.00
32083;BME280;18597;48.328;7.932;2023-07-09T03:28:52;99819.34;;;17.42;100.00
32083;BME280;18597;48.328;7.932;2023-07-09T03:31:19;99829.13;;;17.35;100.00
32083;BME280;18597;48.328;7.932;2023-07-09T03:33:48;99827.97;;;17.46;100.00
32083;BME280;18597;48.328;7.932;2023-07-09T03:36:14;99827.78;;;17.47;100.00
32083;BME280;18597;48.328;7.932;2023-07-09T03:38:40;99832.66;;;17.85;100.00
32083;BME280;18597;48.328;7.932;2023-07-09T03:41:06;99838.22;;;17.75;100.00
32083;BME280;18597;48.328;7.932;2023-07-09T03:43:32;99841.59;;;17.69;100.00
32083;BME280;18597;48.328;7.932;2023-07-09T03:45:58;99842.97;;;17.48;100.00
32083;BME280;18597;48.328;7.932;2023-07-09T03:48:24;99845.31;;;17.52;100.00
32083;BME280;18597;48.328;7.932;2023-07-09T03:50:50;99841.13;;;17.49;100.00
32083;BME280;18597;48.328;7.932;2023-07-09T03:53:16;99849.53;;;17.38;100.00
32083;BME280;18597;48.328;7.932;2023-07-09T03:55:45;99844.31;;;17.36;100.00
32083;BME280;18597;48.328;7.932;2023-07-09T03:58:11;99849.03;;;17.42;100.00
32083;BME280;18597;48.328;7.932;2023-07-09T04:00:37;99851.75;;;17.51;100.00
32083;BME280;18597;48.328;7.932;2023-07-09T04:03:03;99854.56;;;17.90;100.00
32083;BME280;18597;48.328;7.932;2023-07-09T04:05:29;99859.81;;;17.99;100.00
32083;BME280;18597;48.328;7.932;2023-07-09T04:07:55;99866.53;;;18.03;100.00
32083;BME280;18597;48.328;7.932;2023-07-09T04:10:21;99864.69;;;17.96;100.00
32083;BME280;18597;48.328;7.932;2023-07-09T04:12:47;99867.22;;;17.97;100.00
32083;BME280;18597;48.328;7.932;2023-07-09T04:15:13;99865.88;;;18.01;100.00
32083;BME280;18597;48.328;7.932;2023-07-09T04:17:40;99868.91;;;17.98;100.00
32083;BME280;18597;48.328;7.932;2023-07-09T04:20:08;99858.94;;;18.07;100.00
32083;BME280;18597;48.328;7.932;2023-07-09T04:22:36;99861.47;;;18.09;100.00
32083;BME280;18597;48.328;7.932;2023-07-09T04:25:04;99867.28;;;18.28;100.00
32083;BME280;18597;48.328;7.932;2023-07-09T04:27:31;99866.06;;;18.39;100.00
32083;BME280;18597;48.328;7.932;2023-07-09T04:29:57;99866.34;;;18.52;100.00
32083;BME280;18597;48.328;7.932;2023-07-09T04:32:23;99864.25;;;18.63;100.00
32083;BME280;18597;48.328;7.932;2023-07-09T04:34:49;99860.00;;;18.76;100.00
32083;BME280;18597;48.328;7.932;2023-07-09T04:37:16;99853.81;;;18.91;100.00
32083;BME280;18597;48.328;7.932;2023-07-09T04:39:43;99861.03;;;18.98;100.00
32083;BME280;18597;48.328;7.932;2023-07-09T04:42:13;99867.72;;;19.10;100.00
32083;BME280;18597;48.328;7.932;2023-07-09T04:44:40;99866.38;;;19.29;100.00
32083;BME280;18597;48.328;7.932;2023-07-09T04:47:06;99865.94;;;19.63;100.00
32083;BME280;18597;48.328;7.932;2023-07-09T04:49:33;99862.59;;;20.65;100.00
32083;BME280;18597;48.328;7.932;2023-07-09T04:51:59;99855.28;;;22.83;82.64
32083;BME280;18597;48.328;7.932;2023-07-09T04:54:27;99852.25;;;24.70;65.74
32083;BME280;18597;48.328;7.932;2023-07-09T04:56:56;99852.91;;;26.10;56.06
32083;BME280;18597;48.328;7.932;2023-07-09T04:59:22;99851.72;;;26.61;53.47
32083;BME280;18597;48.328;7.932;2023-07-09T05:01:49;99858.22;;;27.50;49.66
32083;BME280;18597;48.328;7.932;2023-07-09T05:04:15;99854.22;;;28.23;47.34
32083;BME280;18597;48.328;7.932;2023-07-09T05:06:41;99843.72;;;29.12;44.61
32083;BME280;18597;48.328;7.932;2023-07-09T05:09:07;99842.00;;;30.28;42.25
32083;BME280;18597;48.328;7.932;2023-07-09T05:11:35;99839.88;;;29.46;42.30
32083;BME280;18597;48.328;7.932;2023-07-09T05:14:03;99842.88;;;28.19;45.18
32083;BME280;18597;48.328;7.932;2023-07-09T05:16:29;99839.72;;;28.91;43.69
32083;BME280;18597;48.328;7.932;2023-07-09T05:18:55;99838.28;;;30.18;41.27
32083;BME280;18597;48.328;7.932;2023-07-09T05:21:21;99837.19;;;29.63;41.56
32083;BME280;18597;48.328;7.932;2023-07-09T05:23:47;99838.09;;;29.07;42.44
32083;BME280;18597;48.328;7.932;2023-07-09T05:26:13;99835.81;;;29.82;41.50
32083;BME280;18597;48.328;7.932;2023-07-09T05:28:39;99844.97;;;30.05;39.92
32083;BME280;18597;48.328;7.932;2023-07-09T05:31:05;99842.75;;;29.68;41.01
32083;BME280;18597;48.328;7.932;2023-07-09T05:33:32;99839.88;;;29.97;40.25
32083;BME280;18597;48.328;7.932;2023-07-09T05:35:57;99845.47;;;31.11;38.22
32083;BME280;18597;48.328;7.932;2023-07-09T05:38:23;99840.34;;;32.94;35.36
32083;BME280;18597;48.328;7.932;2023-07-09T05:41:01;99847.00;;;35.00;31.75
32083;BME280;18597;48.328;7.932;2023-07-09T05:43:28;99839.59;;;35.93;30.38
32083;BME280;18597;48.328;7.932;2023-07-09T05:45:54;99843.41;;;36.02;30.09
32083;BME280;18597;48.328;7.932;2023-07-09T05:48:19;99846.50;;;33.78;32.74
32083;BME280;18597;48.328;7.932;2023-07-09T05:50:45;99844.88;;;33.72;33.64
32083;BME280;18597;48.328;7.932;2023-07-09T05:53:11;99846.47;;;34.18;32.88
32083;BME280;18597;48.328;7.932;2023-07-09T05:55:37;99840.44;;;34.01;32.80
32083;BME280;18597;48.328;7.932;2023-07-09T05:58:03;99843.47;;;33.38;33.59
32083;BME280;18597;48.328;7.932;2023-07-09T06:00:28;99845.44;;;35.23;31.61
32083;BME280;18597;48.328;7.932;2023-07-09T06:02:54;99837.97;;;37.58;27.85
32083;BME280;18597;48.328;7.932;2023-07-09T06:05:20;99838.63;;;38.56;26.29
32083;BME280;18597;48.328;7.932;2023-07-09T06:07:46;99835.50;;;39.98;24.69
32083;BME280;18597;48.328;7.932;2023-07-09T06:10:12;99831.59;;;40.95;23.67
32083;BME280;18597;48.328;7.932;2023-07-09T06:12:39;99837.34;;;42.24;22.09
32083;BME280;18597;48.328;7.932;2023-07-09T06:15:06;99821.56;;;43.98;20.88
32083;BME280;18597;48.328;7.932;2023-07-09T06:17:32;99828.50;;;44.13;19.80
32083;BME280;18597;48.328;7.932;2023-07-09T06:19:58;99819.31;;;42.54;21.27
32083;BME280;18597;48.328;7.932;2023-07-09T06:22:24;99821.19;;;42.80;21.32
32083;BME280;18597;48.328;7.932;2023-07-09T06:24:50;99820.16;;;44.05;20.52
32083;BME280;18597;48.328;7.932;2023-07-09T06:27:15;99819.69;;;45.28;18.98
32083;BME280;18597;48.328;7.932;2023-07-09T06:29:41;99816.81;;;45.84;18.46
32083;BME280;18597;48.328;7.932;2023-07-09T06:32:07;99811.81;;;45.50;18.61
32083;BME280;18597;48.328;7.932;2023-07-09T06:34:33;99803.19;;;44.25;20.00
32083;BME280;18597;48.328;7.932;2023-07-09T06:36:59;99803.53;;;44.36;19.70
32083;BME280;18597;48.328;7.932;2023-07-09T06:39:25;99802.63;;;41.90;21.88
32083;BME280;18597;48.328;7.932;2023-07-09T06:41:51;99804.34;;;41.56;22.53
32083;BME280;18597;48.328;7.932;2023-07-09T06:44:17;99798.06;;;43.37;20.75
32083;BME280;18597;48.328;7.932;2023-07-09T06:46:42;99796.81;;;43.80;20.52
32083;BME280;18597;48.328;7.932;2023-07-09T06:49:10;99805.97;;;45.71;18.85
32083;BME280;18597;48.328;7.932;2023-07-09T06:51:36;99791.84;;;47.62;17.49
32083;BME280;18597;48.328;7.932;2023-07-09T06:54:02;99789.88;;;46.69;17.04
32083;BME280;18597;48.328;7.932;2023-07-09T06:56:27;99792.78;;;46.06;17.43
32083;BME280;18597;48.328;7.932;2023-07-09T06:58:53;99788.97;;;44.10;18.83
32083;BME280;18597;48.328;7.932;2023-07-09T07:01:19;99782.72;;;41.74;21.47
32083;BME280;18597;48.328;7.932;2023-07-09T07:03:45;99777.84;;;39.79;23.03
32083;BME280;18597;48.328;7.932;2023-07-09T07:06:11;99772.91;;;39.76;23.22
32083;BME280;18597;48.328;7.932;2023-07-09T07:08:37;99765.91;;;41.66;21.09
32083;BME280;18597;48.328;7.932;2023-07-09T07:11:04;99764.22;;;44.27;18.94
32083;BME280;18597;48.328;7.932;2023-07-09T07:13:36;99767.84;;;44.65;18.79
32083;BME280;18597;48.328;7.932;2023-07-09T07:16:05;99769.22;;;45.11;18.46
32083;BME280;18597;48.328;7.932;2023-07-09T07:18:31;99758.03;;;46.53;17.66
32083;BME280;18597;48.328;7.932;2023-07-09T07:20:57;99757.22;;;48.22;16.33
32083;BME280;18597;48.328;7.932;2023-07-09T07:23:23;99759.00;;;49.57;14.94
32083;BME280;18597;48.328;7.932;2023-07-09T07:25:50;99749.06;;;51.09;13.54
32083;BME280;18597;48.328;7.932;2023-07-09T07:28:16;99753.19;;;49.84;14.06
32083;BME280;18597;48.328;7.932;2023-07-09T07:30:43;99748.28;;;50.32;14.36
32083;BME280;18597;48.328;7.932;2023-07-09T07:33:09;99749.66;;;52.11;13.17
32083;BME280;18597;48.328;7.932;2023-07-09T07:35:36;99749.66;;;52.04;12.40
32083;BME280;18597;48.328;7.932;2023-07-09T07:38:02;99748.03;;;51.81;12.94
32083;BME280;18597;48.328;7.932;2023-07-09T07:40:29;99738.03;;;50.86;13.30
32083;BME280;18597;48.328;7.932;2023-07-09T07:42:55;99737.84;;;50.47;14.14
32083;BME280;18597;48.328;7.932;2023-07-09T07:45:21;99744.53;;;49.69;14.35
32083;BME280;18597;48.328;7.932;2023-07-09T07:47:47;99745.56;;;49.91;13.71
32083;BME280;18597;48.328;7.932;2023-07-09T07:50:13;99742.28;;;47.95;15.43
32083;BME280;18597;48.328;7.932;2023-07-09T07:52:39;99741.47;;;49.44;14.31
32083;BME280;18597;48.328;7.932;2023-07-09T07:55:07;99734.94;;;51.38;13.36
32083;BME280;18597;48.328;7.932;2023-07-09T07:57:33;99741.31;;;52.88;12.08
32083;BME280;18597;48.328;7.932;2023-07-09T07:59:59;99742.19;;;54.44;11.36
32083;BME280;18597;48.328;7.932;2023-07-09T08:02:25;99741.44;;;55.01;11.23
32083;BME280;18597;48.328;7.932;2023-07-09T08:04:51;99740.03;;;55.94;10.67
32083;BME280;18597;48.328;7.932;2023-07-09T08:07:18;99735.06;;;56.81;10.24
32083;BME280;18597;48.328;7.932;2023-07-09T08:09:45;99738.56;;;57.77;9.64
32083;BME280;18597;48.328;7.932;2023-07-09T08:12:13;99728.81;;;58.20;9.62
32083;BME280;18597;48.328;7.932;2023-07-09T08:14:40;99731.63;;;58.37;9.30
32083;BME280;18597;48.328;7.932;2023-07-09T08:17:07;99738.75;;;58.61;8.93
32083;BME280;18597;48.328;7.932;2023-07-09T08:19:47;99738.59;;;58.81;9.00
32083;BME280;18597;48.328;7.932;2023-07-09T08:22:15;99743.28;;;58.75;8.68
32083;BME280;18597;48.328;7.932;2023-07-09T08:24:41;99740.34;;;58.62;8.73
32083;BME280;18597;48.328;7.932;2023-07-09T08:27:08;99740.38;;;59.04;9.02
32083;BME280;18597;48.328;7.932;2023-07-09T08:29:34;99730.09;;;59.15;9.12
32083;BME280;18597;48.328;7.932;2023-07-09T08:32:00;99723.72;;;59.59;8.74
32083;BME280;18597;48.328;7.932;2023-07-09T08:34:26;99720.56;;;59.19;8.67
32083;BME280;18597;48.328;7.932;2023-07-09T08:36:52;99726.16;;;58.97;8.86
32083;BME280;18597;48.328;7.932;2023-07-09T08:39:17;99725.59;;;59.02;8.88
32083;BME280;18597;48.328;7.932;2023-07-09T08:41:50;99718.47;;;59.32;8.52
32083;BME280;18597;48.328;7.932;2023-07-09T08:45:03;99714.88;;;59.28;8.62
32083;BME280;18597;48.328;7.932;2023-07-09T08:50:25;99707.34;;;59.56;8.46
32083;BME280;18597;48.328;7.932;2023-07-09T08:52:56;99697.56;;;59.53;8.34
32083;BME280;18597;48.328;7.932;2023-07-09T08:55:28;99709.00;;;59.57;8.29
32083;BME280;18597;48.328;7.932;2023-07-09T08:58:00;99709.91;;;58.77;8.47
32083;BME280;18597;48.328;7.932;2023-07-09T09:00:34;99703.09;;;57.84;8.57
32083;BME280;18597;48.328;7.932;2023-07-09T09:03:14;99706.66;;;57.88;8.96
32083;BME280;18597;48.328;7.932;2023-07-09T09:05:45;99697.63;;;58.19;8.90
32083;BME280;18597;48.328;7.932;2023-07-09T09:08:41;99700.84;;;58.50;8.62
32083;BME280;18597;48.328;7.932;2023-07-09T09:14:03;99693.66;;;58.29;8.59
32083;BME280;18597;48.328;7.932;2023-07-09T09:16:37;99674.72;;;57.37;8.84
32083;BME280;18597;48.328;7.932;2023-07-09T09:19:21;99661.59;;;54.53;9.74
32083;BME280;18597;48.328;7.932;2023-07-09T09:21:52;99657.38;;;52.85;10.78
32083;BME280;18597;48.328;7.932;2023-07-09T09:24:30;99655.59;;;52.25;11.09
32083;BME280;18597;48.328;7.932;2023-07-09T09:26:59;99641.50;;;50.28;12.59
32083;BME280;18597;48.328;7.932;2023-07-09T09:29:26;99641.06;;;47.42;14.21
32083;BME280;18597;48.328;7.932;2023-07-09T09:31:56;99648.31;;;45.37;15.55
32083;BME280;18597;48.328;7.932;2023-07-09T09:34:28;99650.94;;;43.69;16.89
32083;BME280;18597;48.328;7.932;2023-07-09T09:36:55;99648.94;;;42.25;17.98
32083;BME280;18597;48.328;7.932;2023-07-09T09:39:25;99656.97;;;41.38;19.14
32083;BME280;18597;48.328;7.932;2023-07-09T09:41:58;99652.44;;;40.73;20.04
32083;BME280;18597;48.328;7.932;2023-07-09T09:44:28;99653.50;;;39.85;21.34
32083;BME280;18597;48.328;7.932;2023-07-09T09:46:58;99652.78;;;39.31;21.84
32083;BME280;18597;48.328;7.932;2023-07-09T09:49:24;99646.47;;;38.95;22.14
32083;BME280;18597;48.328;7.932;2023-07-09T09:51:50;99643.63;;;38.64;22.73
32083;BME280;18597;48.328;7.932;2023-07-09T09:54:21;99649.38;;;38.45;22.15
32083;BME280;18597;48.328;7.932;2023-07-09T09:56:50;99643.88;;;37.62;23.23
32083;BME280;18597;48.328;7.932;2023-07-09T09:59:21;99646.56;;;37.54;23.58
32083;BME280;18597;48.328;7.932;2023-07-09T10:01:47;99656.91;;;37.67;23.42
32083;BME280;18597;48.328;7.932;2023-07-09T10:04:21;99647.63;;;37.71;22.90
32083;BME280;18597;48.328;7.932;2023-07-09T10:06:53;99650.53;;;37.94;22.74
32083;BME280;18597;48.328;7.932;2023-07-09T10:09:54;99643.97;;;38.12;23.13
32083;BME280;18597;48.328;7.932;2023-07-09T10:18:12;99646.66;;;37.62;23.26
32083;BME280;18597;48.328;7.932;2023-07-09T10:20:51;99639.97;;;37.91;23.63
32083;BME280;18597;48.328;7.932;2023-07-09T10:23:53;99633.38;;;38.37;22.88
32083;BME280;18597;48.328;7.932;2023-07-09T10:26:36;99632.13;;;38.65;22.77
32083;BME280;18597;48.328;7.932;2023-07-09T10:30:13;99623.19;;;38.54;22.85
32083;BME280;18597;48.328;7.932;2023-07-09T10:32:49;99632.81;;;38.48;22.68
32083;BME280;18597;48.328;7.932;2023-07-09T10:35:46;99627.19;;;38.40;22.42
32083;BME280;18597;48.328;7.932;2023-07-09T10:41:12;99621.72;;;38.21;23.13
32083;BME280;18597;48.328;7.932;2023-07-09T10:43:48;99615.97;;;38.17;23.27
32083;BME280;18597;48.328;7.932;2023-07-09T10:46:22;99620.19;;;38.15;23.39
32083;BME280;18597;48.328;7.932;2023-07-09T10:48:53;99620.41;;;38.18;23.44
32083;BME280;18597;48.328;7.932;2023-07-09T10:51:31;99620.34;;;37.96;23.14
32083;BME280;18597;48.328;7.932;2023-07-09T10:54:15;99624.59;;;37.66;22.95
32083;BME280;18597;48.328;7.932;2023-07-09T10:56:43;99621.81;;;37.52;23.37
32083;BME280;18597;48.328;7.932;2023-07-09T10:59:35;99625.63;;;37.42;23.91
32083;BME280;18597;48.328;7.932;2023-07-09T11:02:29;99619.94;;;37.61;23.91
32083;BME280;18597;48.328;7.932;2023-07-09T11:05:00;99612.41;;;37.89;23.17
32083;BME280;18597;48.328;7.932;2023-07-09T11:07:36;99620.81;;;38.12;23.94
32083;BME280;18597;48.328;7.932;2023-07-09T11:10:19;99612.44;;;38.25;24.66
32083;BME280;18597;48.328;7.932;2023-07-09T11:12:58;99615.38;;;38.43;24.76
32083;BME280;18597;48.328;7.932;2023-07-09T11:15:35;99618.34;;;38.46;25.14
32083;BME280;18597;48.328;7.932;2023-07-09T11:18:06;99609.47;;;38.44;25.01
32083;BME280;18597;48.328;7.932;2023-07-09T11:20:36;99617.66;;;38.41;25.97
32083;BME280;18597;48.328;7.932;2023-07-09T11:23:16;99609.78;;;38.65;25.84
32083;BME280;18597;48.328;7.932;2023-07-09T11:25:46;99606.50;;;38.85;26.03
32083;BME280;18597;48.328;7.932;2023-07-09T11:28:12;99610.09;;;39.08;26.63
32083;BME280;18597;48.328;7.932;2023-07-09T11:30:55;99611.59;;;39.15;26.11
32083;BME280;18597;48.328;7.932;2023-07-09T11:33:30;99610.66;;;38.97;25.01
32083;BME280;18597;48.328;7.932;2023-07-09T11:36:14;99617.66;;;38.63;25.34
32083;BME280;18597;48.328;7.932;2023-07-09T11:38:46;99617.06;;;38.52;25.57
32083;BME280;18597;48.328;7.932;2023-07-09T11:41:47;99603.97;;;38.75;26.69
32083;BME280;18597;48.328;7.932;2023-07-09T11:44:18;99609.69;;;38.93;26.89
32083;BME280;18597;48.328;7.932;2023-07-09T11:47:01;99606.63;;;39.11;26.00
32083;BME280;18597;48.328;7.932;2023-07-09T11:49:44;99609.59;;;39.37;25.96
32083;BME280;18597;48.328;7.932;2023-07-09T11:52:12;99612.25;;;39.51;25.52
32083;BME280;18597;48.328;7.932;2023-07-09T11:54:39;99606.69;;;39.60;24.56
32083;BME280;18597;48.328;7.932;2023-07-09T11:57:12;99610.53;;;39.81;24.52
32083;BME280;18597;48.328;7.932;2023-07-09T11:59:41;99611.19;;;39.70;24.85
32083;BME280;18597;48.328;7.932;2023-07-09T12:02:17;99595.28;;;39.39;24.21
32083;BME280;18597;48.328;7.932;2023-07-09T12:04:48;99593.28;;;39.31;24.74
32083;BME280;18597;48.328;7.932;2023-07-09T12:07:16;99590.19;;;39.41;24.37
32083;BME280;18597;48.328;7.932;2023-07-09T12:09:48;99596.56;;;39.33;24.90
32083;BME280;18597;48.328;7.932;2023-07-09T12:12:21;99585.09;;;39.12;25.00
32083;BME280;18597;48.328;7.932;2023-07-09T12:14:48;99585.78;;;38.78;25.50
32083;BME280;18597;48.328;7.932;2023-07-09T12:17:13;99574.16;;;38.62;25.86
32083;BME280;18597;48.328;7.932;2023-07-09T12:19:39;99569.38;;;38.63;25.77
32083;BME280;18597;48.328;7.932;2023-07-09T12:22:19;99567.22;;;38.59;25.72
32083;BME280;18597;48.328;7.932;2023-07-09T12:24:48;99563.66;;;38.45;25.40
32083;BME280;18597;48.328;7.932;2023-07-09T12:27:21;99544.28;;;38.04;25.78
32083;BME280;18597;48.328;7.932;2023-07-09T12:29:48;99561.72;;;37.60;26.55
32083;BME280;18597;48.328;7.932;2023-07-09T12:32:17;99554.59;;;37.40;26.63
32083;BME280;18597;48.328;7.932;2023-07-09T12:34:50;99547.19;;;37.35;26.42
32083;BME280;18597;48.328;7.932;2023-07-09T12:37:16;99546.66;;;37.47;26.38
32083;BME280;18597;48.328;7.932;2023-07-09T12:39:44;99538.38;;;37.69;26.06
32083;BME280;18597;48.328;7.932;2023-07-09T12:42:17;99537.97;;;37.62;26.48
32083;BME280;18597;48.328;7.932;2023-07-09T12:44:44;99527.88;;;37.53;26.79
32083;BME280;18597;48.328;7.932;2023-07-09T12:47:14;99527.13;;;37.61;26.73
32083;BME280;18597;48.328;7.932;2023-07-09T12:49:43;99525.88;;;37.67;27.00
32083;BME280;18597;48.328;7.932;2023-07-09T12:52:17;99521.84;;;37.87;26.43
32083;BME280;18597;48.328;7.932;2023-07-09T12:54:57;99520.47;;;37.98;25.98
32083;BME280;18597;48.328;7.932;2023-07-09T12:57:24;99522.59;;;38.01;26.36
32083;BME280;18597;48.328;7.932;2023-07-09T12:59:51;99522.00;;;38.04;25.67
32083;BME280;18597;48.328;7.932;2023-07-09T13:05:04;99516.44;;;38.26;26.13
32083;BME280;18597;48.328;7.932;2023-07-09T13:07:36;99510.56;;;38.14;25.53
32083;BME280;18597;48.328;7.932;2023-07-09T13:10:15;99512.28;;;38.01;25.45
32083;BME280;18597;48.328;7.932;2023-07-09T13:12:41;99514.16;;;37.92;25.56
32083;BME280;18597;48.328;7.932;2023-07-09T13:18:13;99513.72;;;37.99;26.34
32083;BME280;18597;48.328;7.932;2023-07-09T13:20:42;99510.13;;;38.21;25.66
32083;BME280;18597;48.328;7.932;2023-07-09T13:23:12;99511.47;;;38.46;24.72
32083;BME280;18597;48.328;7.932;2023-07-09T13:25:39;99502.47;;;38.49;25.48
32083;BME280;18597;48.328;7.932;2023-07-09T13:30:52;99500.91;;;38.34;26.61
32083;BME280;18597;48.328;7.932;2023-07-09T13:33:18;99496.00;;;38.17;26.82
32083;BME280;18597;48.328;7.932;2023-07-09T13:35:46;99496.63;;;38.14;27.00